Bookmark and Share
Track history (hours):
 

Rhl Felicitas

Last reported at 2014-Apr-24 21:27 UTC. Time now 2014-Apr-24 21:56 UTC.
Position N 22°06' E 114°08'.

Length 294 m; draft 8.2 m.

Type: Cargo ship. MMSI: 636091781.

NotesDate/timePositionNaut miles runAvg speedWind from/ knotsBaromVisibWave heightAir tempDewpointWater temp
2014-Apr-24 21:27N 22°06' E 114°08'0 0.0
2014-Apr-24 18:33N 22°06' E 114°08'0 0.0
2014-Apr-24 17:27N 22°06' E 114°08'0 0.0
2014-Apr-24 16:27N 22°06' E 114°08'0 0.0
2014-Apr-24 15:09N 22°06' E 114°08'0 0.0
2014-Apr-24 14:33N 22°06' E 114°08'0 0.0
2014-Apr-24 12:09N 22°06' E 114°08'0 0.0
2014-Apr-24 11:21N 22°06' E 114°08'0 0.0
2014-Apr-24 10:33N 22°06' E 114°08'0 0.0
2014-Apr-24 09:21N 22°06' E 114°08'0 0.0
2014-Apr-24 08:33N 22°06' E 114°08'0 0.0
2014-Apr-24 07:21N 22°06' E 114°08'0 0.0
2014-Apr-24 04:33N 22°06' E 114°08'0 0.0
2014-Apr-24 00:33N 22°06' E 114°08'0 0.0
2014-Apr-23 23:33N 22°06' E 114°08'0 0.0
2014-Apr-23 22:27N 22°06' E 114°08'0 0.0
2014-Apr-23 19:27N 22°06' E 114°08'0 0.0
2014-Apr-23 18:33N 22°06' E 114°08'0 0.0
2014-Apr-23 17:33N 22°06' E 114°08'0 0.0
2014-Apr-23 16:21N 22°06' E 114°08'0 0.0
2014-Apr-23 15:03N 22°06' E 114°08'0 0.0
2014-Apr-23 07:09N 22°06' E 114°08'0 0.0
2014-Apr-23 06:15N 22°06' E 114°08'0 0.0
2014-Apr-23 05:33N 22°06' E 114°08'0 0.0
2014-Apr-22 21:15N 22°06' E 114°08'  
2014-Apr-18 07:33N 22°06' E 114°08'0 0.0
2014-Apr-18 05:21N 22°07' E 114°08'0 0.0
2014-Apr-17 06:09N 22°06' E 114°08'0 0.2
2014-Apr-17 05:31N 22°06' E 114°08'3 2.8
2014-Apr-17 04:17N 22°10' E 114°07'0 0.0
2014-Apr-17 03:05N 22°10' E 114°07'0 0.0
2014-Apr-17 00:20N 22°10' E 114°07'4 4.2
2014-Apr-16 23:29N 22°06' E 114°07'4 3.4
2014-Apr-16 22:21N 22°03' E 114°06'0 0.1
2014-Apr-16 21:33N 22°02' E 114°06'0 0.0
2014-Apr-16 20:15N 22°03' E 114°06'0 0.0
2014-Apr-16 19:33N 22°02' E 114°06'0 0.0
2014-Apr-16 18:27N 22°02' E 114°06'0 0.0
2014-Apr-16 17:27N 22°02' E 114°06'0 0.0
2014-Apr-16 16:27N 22°02' E 114°06'0 0.0
2014-Apr-16 15:27N 22°02' E 114°06'0 0.0
2014-Apr-16 14:33N 22°02' E 114°06'0 0.0
2014-Apr-16 13:21N 22°03' E 114°06'0 0.0
2014-Apr-16 12:21N 22°03' E 114°06'0 0.0
2014-Apr-16 11:21N 22°03' E 114°06'0 0.0
2014-Apr-16 10:33N 22°02' E 114°06'0 0.0
2014-Apr-16 09:09N 22°02' E 114°06'0 0.0
2014-Apr-16 08:33N 22°02' E 114°06'0 0.0
2014-Apr-16 07:33N 22°02' E 114°06'0 0.0
2014-Apr-16 06:09N 22°02' E 114°06'0 0.0
2014-Apr-16 05:33N 22°02' E 114°06'0 0.0
2014-Apr-16 04:09N 22°02' E 114°06'0 0.0
2014-Apr-16 03:15N 22°02' E 114°06'0 0.0
2014-Apr-16 02:15N 22°02' E 114°06'0 0.0
2014-Apr-16 01:33N 22°03' E 114°06'0 0.0
2014-Apr-16 00:21N 22°03' E 114°06'0 0.0
2014-Apr-15 23:33N 22°03' E 114°06'0 0.0
2014-Apr-15 22:33N 22°02' E 114°06'0 0.0
2014-Apr-15 21:21N 22°02' E 114°06'0 0.0
2014-Apr-15 20:03N 22°03' E 114°06'0 0.0
2014-Apr-15 19:33N 22°02' E 114°06'0 0.0
2014-Apr-15 18:21N 22°02' E 114°06'0 0.0
2014-Apr-15 17:09N 22°02' E 114°06'0 0.0
2014-Apr-15 16:33N 22°02' E 114°06'0 0.0
2014-Apr-15 15:21N 22°02' E 114°06'0 0.0
2014-Apr-15 14:27N 22°03' E 114°06'0 0.0
2014-Apr-15 09:33N 22°03' E 114°06'0 0.0
2014-Apr-15 07:33N 22°02' E 114°06'0 0.0
2014-Apr-15 06:33N 22°02' E 114°06'  

Dump ship's entire track history

sailing weather and tide predictions

Rhl Felicitas — A8SV2 — position and weather